Time;durP1;ratioP1;P1;durP2;ratioP2;P2;SDS_P1;SDS_P2;PMS_P1;PMS_P2;Temp;Humidity;BMP_temperature;BMP_pressure;BME280_temperature;BME280_humidity;BME280_pressure;Samples;Min_cycle;Max_cycle;Signal;HPM_P1;HPM_P2
2023/08/14 00:01:51;;;;;;;6.15;5.55;;;14.50;99.90;;;;;;5052960;28;20955;-91
2023/08/14 00:04:17;;;;;;;8.70;6.27;;;14.40;99.90;;;;;;5052826;28;20412;-90
2023/08/14 00:06:42;;;;;;;7.45;6.15;;;14.90;99.90;;;;;;5053166;28;20394;-91
2023/08/14 00:09:08;;;;;;;6.63;5.90;;;14.60;99.90;;;;;;5053107;28;20405;-91
2023/08/14 00:11:34;;;;;;;6.25;5.53;;;14.90;99.90;;;;;;5053581;28;20417;-92
2023/08/14 00:13:59;;;;;;;6.65;5.93;;;14.50;99.90;;;;;;5053348;28;20925;-92
2023/08/14 00:16:25;;;;;;;6.43;5.40;;;14.40;99.90;;;;;;5070110;28;20406;-91
2023/08/14 00:18:52;;;;;;;6.70;6.00;;;14.70;99.90;;;;;;5053038;28;20833;-90
2023/08/14 00:21:17;;;;;;;6.27;5.50;;;14.40;99.90;;;;;;5053795;28;20417;-91
2023/08/14 00:23:43;;;;;;;7.18;6.28;;;14.50;99.90;;;;;;5057222;28;20416;-92
2023/08/14 00:26:12;;;;;;;6.97;6.28;;;14.70;99.90;;;;;;5057165;28;20766;-91
2023/08/14 00:28:38;;;;;;;7.28;6.03;;;14.30;99.90;;;;;;5057182;28;20410;-92
2023/08/14 00:31:04;;;;;;;6.40;5.70;;;14.30;99.90;;;;;;5056710;28;20412;-91
2023/08/14 00:33:29;;;;;;;7.17;5.97;;;14.30;99.90;;;;;;5057247;28;20394;-92
2023/08/14 00:35:55;;;;;;;6.95;5.82;;;14.50;99.90;;;;;;5057089;28;20402;-91
2023/08/14 00:38:21;;;;;;;7.40;5.83;;;14.50;99.90;;;;;;5056593;28;20739;-91
2023/08/14 00:40:46;;;;;;;7.78;6.22;;;14.20;99.90;;;;;;5056741;28;20428;-91
2023/08/14 00:43:13;;;;;;;8.83;6.23;;;14.30;99.90;;;;;;5056621;28;20828;-89
2023/08/14 00:45:38;;;;;;;7.00;6.30;;;14.30;99.90;;;;;;5056857;28;20406;-90
2023/08/14 00:48:05;;;;;;;6.93;6.23;;;14.50;99.90;;;;;;5056408;28;20412;-92
2023/08/14 00:50:30;;;;;;;7.88;6.38;;;14.20;99.90;;;;;;5073298;28;20445;-92
2023/08/14 00:52:59;;;;;;;10.10;7.90;;;15.20;99.90;;;;;;5056047;28;20872;-91
2023/08/14 00:55:26;;;;;;;7.22;5.75;;;14.00;99.90;;;;;;5056555;28;20443;-91
2023/08/14 00:57:53;;;;;;;7.25;6.35;;;14.40;99.90;;;;;;5056775;28;20456;-91
2023/08/14 01:00:19;;;;;;;7.68;6.43;;;14.20;99.90;;;;;;5056711;28;20398;-91
2023/08/14 01:02:46;;;;;;;7.10;6.40;;;14.10;99.90;;;;;;5056476;28;20425;-90
2023/08/14 01:05:12;;;;;;;7.43;5.75;;;14.30;99.90;;;;;;5055855;28;20937;-91
2023/08/14 01:07:38;;;;;;;8.27;6.57;;;14.20;99.90;;;;;;5056746;28;20481;-91
2023/08/14 01:10:09;;;;;;;8.18;6.80;;;14.60;99.90;;;;;;5056009;28;20416;-91
2023/08/14 01:12:52;;;;;;;9.95;7.10;;;14.20;99.90;;;;;;5056687;28;20428;-92
2023/08/14 01:15:36;;;;;;;7.17;6.47;;;14.20;99.90;;;;;;5056034;28;20429;-91
2023/08/14 01:18:03;;;;;;;9.95;7.20;;;14.20;99.90;;;;;;5072531;28;20474;-91
2023/08/14 01:20:31;;;;;;;8.65;7.03;;;14.20;99.90;;;;;;5056424;28;20478;-91
2023/08/14 01:23:12;;;;;;;10.25;6.82;;;14.00;99.90;;;;;;5055355;28;20440;-91
2023/08/14 01:25:39;;;;;;;8.05;6.68;;;14.20;99.90;;;;;;5056034;28;20414;-92
2023/08/14 01:28:08;;;;;;;8.73;7.82;;;14.20;99.90;;;;;;5072464;28;21329;-91
2023/08/14 01:30:34;;;;;;;9.88;7.10;;;14.20;99.90;;;;;;5055707;28;20801;-89
2023/08/14 01:33:00;;;;;;;8.35;7.53;;;14.20;99.90;;;;;;5055752;28;20456;-91
2023/08/14 01:35:29;;;;;;;10.70;7.20;;;14.20;99.90;;;;;;5055624;28;20401;-92
2023/08/14 01:38:02;;;;;;;7.57;6.75;;;14.20;99.90;;;;;;5056006;28;20417;-92
2023/08/14 01:40:42;;;;;;;9.20;7.30;;;14.20;99.90;;;;;;5055883;28;20459;-91
2023/08/14 01:43:22;;;;;;;11.27;7.53;;;14.20;99.90;;;;;;5055765;28;20837;-91
2023/08/14 01:45:47;;;;;;;9.57;7.80;;;14.40;99.90;;;;;;5055792;28;20398;-91
2023/08/14 01:48:14;;;;;;;9.18;7.18;;;14.50;99.90;;;;;;5055279;28;20925;-89
2023/08/14 01:50:41;;;;;;;11.07;7.57;;;14.10;99.90;;;;;;5055630;28;20394;-91
2023/08/14 01:53:07;;;;;;;7.30;6.50;;;14.10;99.90;;;;;;5072066;28;20429;-91
2023/08/14 01:55:33;;;;;;;8.53;6.60;;;14.00;99.90;;;;;;5071943;28;20398;-90
2023/08/14 01:57:59;;;;;;;8.50;7.60;;;14.10;99.90;;;;;;5055248;28;20407;-90
2023/08/14 02:00:26;;;;;;;8.40;6.93;;;14.10;99.90;;;;;;5072472;28;20431;-91
2023/08/14 02:02:53;;;;;;;8.80;6.65;;;14.10;99.90;;;;;;5055570;28;20491;-91
2023/08/14 02:05:18;;;;;;;8.65;7.18;;;14.00;99.90;;;;;;5072241;28;20405;-90
2023/08/14 02:07:44;;;;;;;8.60;7.63;;;14.10;99.90;;;;;;5055440;28;20906;-91
2023/08/14 02:10:10;;;;;;;9.63;8.15;;;14.00;99.90;;;;;;5054721;28;20414;-90
2023/08/14 02:12:35;;;;;;;10.83;8.10;;;14.00;99.90;;;;;;5055402;28;20398;-91
2023/08/14 02:15:01;;;;;;;9.13;7.15;;;14.20;99.90;;;;;;5055251;28;20484;-91
2023/08/14 02:17:27;;;;;;;8.63;7.18;;;14.00;99.90;;;;;;5055055;28;20416;-91
2023/08/14 02:19:53;;;;;;;10.50;7.70;;;14.00;99.90;;;;;;5054850;28;20862;-90
2023/08/14 02:22:19;;;;;;;9.98;8.00;;;14.70;99.90;;;;;;5054864;28;20433;-91
2023/08/14 02:24:45;;;;;;;10.43;7.77;;;14.20;99.90;;;;;;5054855;28;20477;-91
2023/08/14 02:27:10;;;;;;;9.47;7.30;;;14.30;99.90;;;;;;5055040;28;20414;-91
2023/08/14 02:29:36;;;;;;;10.10;8.20;;;14.50;99.90;;;;;;5054805;28;20445;-90
2023/08/14 02:32:03;;;;;;;11.43;8.50;;;14.00;99.90;;;;;;5054264;28;20446;-91
2023/08/14 02:34:49;;;;;;;8.30;7.50;;;14.00;99.90;;;;;;5071213;28;20441;-91
2023/08/14 02:37:16;;;;;;;9.88;8.43;;;14.00;99.90;;;;;;5054804;28;20418;-91
2023/08/14 02:39:43;;;;;;;9.18;7.90;;;14.10;99.90;;;;;;5054878;28;20406;-90
2023/08/14 02:42:09;;;;;;;9.23;7.90;;;14.00;99.90;;;;;;5055008;28;20422;-90
2023/08/14 02:44:35;;;;;;;8.63;7.70;;;14.00;99.90;;;;;;5070445;28;20394;-90
2023/08/14 02:47:02;;;;;;;8.82;7.90;;;14.50;99.90;;;;;;5054495;28;20402;-91
2023/08/14 02:49:28;;;;;;;10.95;9.23;;;14.10;99.90;;;;;;5053760;28;20537;-91
2023/08/14 02:51:54;;;;;;;11.68;9.35;;;14.10;99.90;;;;;;5054239;28;20868;-91
2023/08/14 02:54:20;;;;;;;9.75;7.80;;;14.20;99.90;;;;;;5054604;28;20868;-91
2023/08/14 02:56:46;;;;;;;11.68;8.90;;;14.30;99.90;;;;;;5054603;28;20778;-90
2023/08/14 02:59:11;;;;;;;12.05;8.50;;;14.10;99.90;;;;;;5054234;28;20393;-92
2023/08/14 03:01:37;;;;;;;11.90;8.93;;;14.60;99.90;;;;;;5053931;28;20410;-91
2023/08/14 03:04:03;;;;;;;11.33;8.80;;;14.20;99.90;;;;;;5054115;28;20910;-91
2023/08/14 03:06:31;;;;;;;13.20;9.57;;;14.20;99.90;;;;;;5053737;28;20470;-91
2023/08/14 03:08:57;;;;;;;11.98;8.73;;;14.20;99.90;;;;;;5054238;28;20409;-90
2023/08/14 03:11:23;;;;;;;10.63;8.35;;;14.30;99.90;;;;;;5054100;28;20420;-91
2023/08/14 03:13:48;;;;;;;14.23;9.90;;;14.40;99.90;;;;;;5053607;28;20989;-90
2023/08/14 03:16:14;;;;;;;13.40;10.07;;;14.10;99.90;;;;;;5070801;28;20406;-92
2023/08/14 03:18:40;;;;;;;14.02;9.75;;;14.20;99.90;;;;;;5053725;28;20509;-91
2023/08/14 03:21:07;;;;;;;12.70;9.93;;;14.10;99.90;;;;;;5053775;28;20424;-92
2023/08/14 03:23:32;;;;;;;16.40;11.63;;;14.00;99.90;;;;;;5053490;28;20767;-91
2023/08/14 03:25:58;;;;;;;14.93;10.63;;;14.30;99.90;;;;;;5053729;28;20414;-91
2023/08/14 03:28:24;;;;;;;14.80;10.63;;;14.00;99.90;;;;;;5053661;28;20482;-90
2023/08/14 03:30:50;;;;;;;12.73;10.53;;;14.10;99.90;;;;;;5054143;28;20915;-91
2023/08/14 03:33:16;;;;;;;14.60;10.98;;;13.70;99.90;;;;;;5053778;28;20798;-90
2023/08/14 03:35:41;;;;;;;12.07;10.77;;;14.10;99.90;;;;;;5053480;28;20402;-90
2023/08/14 03:38:07;;;;;;;15.50;10.85;;;14.00;99.90;;;;;;5053538;28;20428;-91
2023/08/14 03:40:33;;;;;;;19.33;13.23;;;14.30;99.90;;;;;;5053353;28;20744;-91
2023/08/14 03:42:58;;;;;;;14.05;11.27;;;14.30;99.90;;;;;;5053826;28;20430;-91
2023/08/14 03:45:24;;;;;;;15.30;11.33;;;14.10;99.90;;;;;;5053338;28;20402;-93
2023/08/14 03:47:49;;;;;;;15.75;11.00;;;14.10;99.90;;;;;;5053563;28;20413;-91
2023/08/14 03:50:15;;;;;;;15.30;11.13;;;13.60;99.90;;;;;;5053176;28;20779;-91
2023/08/14 03:52:41;;;;;;;17.37;12.27;;;13.90;99.90;;;;;;5053433;28;20869;-91
2023/08/14 03:55:08;;;;;;;13.63;12.23;;;13.80;99.90;;;;;;5069808;28;20961;-92
2023/08/14 03:57:33;;;;;;;13.88;11.23;;;13.80;99.90;;;;;;5052635;28;20454;-91
2023/08/14 03:59:59;;;;;;;15.18;11.88;;;13.80;99.90;;;;;;5053637;28;20492;-91
2023/08/14 04:02:25;;;;;;;15.15;11.52;;;14.00;99.90;;;;;;5052723;28;20428;-91
2023/08/14 04:04:51;;;;;;;17.55;13.70;;;14.10;99.90;;;;;;5053260;28;20788;-91
2023/08/14 04:07:16;;;;;;;13.37;11.23;;;13.70;99.90;;;;;;5069115;28;20484;-91
2023/08/14 04:09:42;;;;;;;14.25;11.55;;;13.70;99.90;;;;;;5053100;28;20421;-92
2023/08/14 04:12:09;;;;;;;15.30;12.27;;;13.90;99.90;;;;;;5053320;28;20402;-90
2023/08/14 04:14:35;;;;;;;14.00;12.18;;;14.10;99.90;;;;;;5069836;28;20493;-90
2023/08/14 04:17:01;;;;;;;16.10;13.55;;;13.70;99.90;;;;;;5053219;28;20501;-93
2023/08/14 04:19:27;;;;;;;20.88;14.52;;;13.90;99.90;;;;;;5053061;28;20496;-90
2023/08/14 04:21:53;;;;;;;17.60;13.88;;;13.70;99.90;;;;;;5053223;28;20915;-92
2023/08/14 04:24:18;;;;;;;24.15;16.90;;;13.80;99.90;;;;;;5052772;28;20417;-90
2023/08/14 04:26:44;;;;;;;19.00;15.00;;;13.70;99.90;;;;;;5052914;28;20448;-90
2023/08/14 04:29:10;;;;;;;22.88;17.15;;;14.00;99.90;;;;;;5069664;28;20432;-89
2023/08/14 04:31:36;;;;;;;23.40;17.83;;;14.00;99.90;;;;;;5053027;28;20398;-91
2023/08/14 04:34:03;;;;;;;22.00;18.42;;;14.20;99.90;;;;;;5052917;28;20812;-91
2023/08/14 04:36:31;;;;;;;24.35;17.90;;;13.80;99.90;;;;;;5052996;28;20477;-91
2023/08/14 04:38:57;;;;;;;24.17;19.40;;;13.90;99.90;;;;;;5052949;28;20762;-90
2023/08/14 04:41:24;;;;;;;21.13;16.95;;;14.00;99.90;;;;;;5052288;28;20409;-91
2023/08/14 04:43:49;;;;;;;22.45;17.45;;;14.00;99.90;;;;;;5052818;28;20402;-91
2023/08/14 04:46:35;;;;;;;24.42;19.10;;;14.30;99.90;;;;;;5052690;28;20470;-90
2023/08/14 04:49:01;;;;;;;22.30;18.13;;;13.90;99.90;;;;;;5052419;28;20913;-90
2023/08/14 04:51:27;;;;;;;22.70;18.67;;;14.50;99.90;;;;;;5052795;28;20913;-91
2023/08/14 04:53:54;;;;;;;21.63;18.30;;;14.10;99.90;;;;;;5052225;28;20401;-89
2023/08/14 04:56:20;;;;;;;24.63;18.88;;;14.30;99.90;;;;;;5052640;28;20918;-91
2023/08/14 04:58:46;;;;;;;28.00;19.48;;;14.40;99.90;;;;;;5052178;28;20401;-91
2023/08/14 05:01:12;;;;;;;26.02;19.13;;;14.40;99.90;;;;;;5052336;28;20394;-90
2023/08/14 05:03:38;;;;;;;25.20;18.73;;;14.80;99.90;;;;;;5052211;28;20495;-90
2023/08/14 05:06:04;;;;;;;22.40;19.40;;;14.50;99.90;;;;;;5052509;28;20433;-91
2023/08/14 05:08:30;;;;;;;22.60;19.05;;;14.60;99.90;;;;;;5055143;28;20437;-90
2023/08/14 05:10:56;;;;;;;22.48;18.23;;;14.80;99.90;;;;;;5056135;28;21013;-89
2023/08/14 05:13:22;;;;;;;21.92;18.50;;;14.70;99.90;;;;;;5056618;28;20477;-90
2023/08/14 05:15:50;;;;;;;24.33;20.37;;;14.70;99.90;;;;;;5056059;28;20909;-91
2023/08/14 05:18:16;;;;;;;25.85;20.75;;;14.50;99.90;;;;;;5056067;28;20405;-90
2023/08/14 05:20:45;;;;;;;27.00;19.73;;;14.50;99.90;;;;;;5055661;28;20402;-90
2023/08/14 05:23:12;;;;;;;26.75;20.88;;;14.90;99.90;;;;;;5071753;28;20422;-89
2023/08/14 05:25:38;;;;;;;22.70;18.52;;;15.00;99.90;;;;;;5056355;28;20401;-91
2023/08/14 05:28:04;;;;;;;22.60;18.52;;;15.00;99.90;;;;;;5054133;28;20987;-91
2023/08/14 05:30:31;;;;;;;23.47;19.17;;;15.00;99.90;;;;;;5072320;28;20394;-91
2023/08/14 05:32:56;;;;;;;19.00;16.63;;;15.30;99.90;;;;;;5054503;28;20434;-90
2023/08/14 05:35:25;;;;;;;20.17;17.63;;;15.20;99.90;;;;;;5055514;28;20491;-88
2023/08/14 05:37:52;;;;;;;20.00;17.50;;;15.30;99.90;;;;;;5071636;28;20398;-89
2023/08/14 05:40:25;;;;;;;19.90;16.60;;;15.30;99.90;;;;;;5055192;28;20829;-89
2023/08/14 05:43:08;;;;;;;19.48;16.20;;;15.40;99.90;;;;;;5055174;28;20821;-89
2023/08/14 05:45:35;;;;;;;18.10;16.17;;;15.40;99.90;;;;;;5055065;28;20430;-90
2023/08/14 05:48:02;;;;;;;21.35;17.50;;;15.50;99.90;;;;;;5052554;28;20505;-91
2023/08/14 05:50:28;;;;;;;18.42;16.35;;;15.60;99.90;;;;;;5054187;28;20402;-89
2023/08/14 05:53:04;;;;;;;18.80;16.10;;;15.70;99.90;;;;;;5053938;28;20422;-89
2023/08/14 05:55:38;;;;;;;19.05;15.18;;;15.80;99.90;;;;;;5052727;28;20613;-90
2023/08/14 05:58:06;;;;;;;17.52;15.70;;;15.80;99.90;;;;;;5049253;28;20473;-91
2023/08/14 06:00:32;;;;;;;19.55;15.68;;;15.90;99.90;;;;;;5035277;28;20920;-90
2023/08/14 06:02:58;;;;;;;20.30;15.87;;;15.90;99.90;;;;;;5038028;28;21088;-91
2023/08/14 06:05:23;;;;;;;17.80;15.30;;;16.40;99.90;;;;;;5055318;28;20930;-90
2023/08/14 06:07:51;;;;;;;16.77;14.95;;;16.10;99.90;;;;;;5052595;28;20414;-91
2023/08/14 06:10:17;;;;;;;16.40;14.20;;;16.20;99.90;;;;;;5054977;28;20843;-90
2023/08/14 06:12:48;;;;;;;18.35;14.90;;;16.20;99.90;;;;;;5054059;28;20402;-90
2023/08/14 06:15:14;;;;;;;15.90;13.63;;;16.50;99.90;;;;;;5054319;28;20409;-90
2023/08/14 06:17:41;;;;;;;17.20;14.23;;;16.40;99.90;;;;;;5054003;28;20460;-91
2023/08/14 06:20:07;;;;;;;17.60;14.18;;;16.50;99.90;;;;;;5053212;28;20477;-91
2023/08/14 06:22:41;;;;;;;15.73;13.98;;;16.50;99.90;;;;;;5054627;28;20466;-91
2023/08/14 06:25:08;;;;;;;17.42;13.93;;;16.60;99.90;;;;;;5051943;28;20481;-94
2023/08/14 06:27:34;;;;;;;14.95;13.45;;;16.70;99.90;;;;;;5037416;28;20404;-91
2023/08/14 06:30:00;;;;;;;18.05;14.20;;;16.70;99.90;;;;;;5054171;28;20398;-91
2023/08/14 06:32:26;;;;;;;15.55;13.35;;;16.90;99.90;;;;;;5054133;28;20928;-91
2023/08/14 06:34:52;;;;;;;13.20;11.77;;;16.90;99.90;;;;;;5054370;28;20459;-91
2023/08/14 06:37:17;;;;;;;13.82;11.27;;;17.00;99.90;;;;;;5070961;28;20405;-89
2023/08/14 06:39:43;;;;;;;13.45;12.07;;;17.10;99.90;;;;;;5057598;28;20551;-92
2023/08/14 06:42:09;;;;;;;13.37;11.70;;;17.20;99.90;;;;;;5054820;28;20422;-92
2023/08/14 06:44:35;;;;;;;14.32;11.82;;;17.40;99.90;;;;;;5062310;28;20405;-92
2023/08/14 06:47:01;;;;;;;12.13;10.82;;;17.50;99.90;;;;;;5055688;28;20762;-92
2023/08/14 06:49:27;;;;;;;13.85;10.77;;;17.40;99.90;;;;;;5054382;28;20998;-92
2023/08/14 06:51:53;;;;;;;11.98;10.77;;;17.60;99.90;;;;;;5054968;28;20406;-92
2023/08/14 06:54:21;;;;;;;12.43;9.90;;;18.00;99.90;;;;;;5071254;28;20789;-91
2023/08/14 06:56:47;;;;;;;11.18;9.23;;;17.80;99.90;;;;;;5055261;28;20394;-92
2023/08/14 06:59:13;;;;;;;10.25;9.10;;;17.90;99.90;;;;;;5054456;28;20402;-91
2023/08/14 07:01:39;;;;;;;11.40;9.23;;;18.10;99.90;;;;;;5054691;28;21125;-92
2023/08/14 07:04:05;;;;;;;11.23;9.32;;;18.20;99.90;;;;;;5053342;28;21196;-92
2023/08/14 07:06:30;;;;;;;12.77;9.57;;;18.40;99.90;;;;;;5054678;28;20409;-93
2023/08/14 07:08:56;;;;;;;10.20;8.47;;;18.90;99.90;;;;;;5055422;28;20463;-93
2023/08/14 07:11:22;;;;;;;9.50;7.63;;;18.70;99.90;;;;;;5055833;28;20415;-92
2023/08/14 07:13:47;;;;;;;8.73;6.93;;;19.60;99.90;;;;;;5054824;28;21091;-92
2023/08/14 07:16:13;;;;;;;9.57;7.20;;;18.90;99.90;;;;;;5056006;28;20954;-93
2023/08/14 07:18:39;;;;;;;9.07;7.10;;;19.20;99.90;;;;;;5056266;28;20536;-93
2023/08/14 07:21:05;;;;;;;9.25;6.63;;;19.30;99.90;;;;;;5071694;28;20395;-93
2023/08/14 07:23:31;;;;;;;8.18;6.30;;;19.60;99.90;;;;;;5055712;28;20446;-93
2023/08/14 07:25:59;;;;;;;7.22;6.00;;;19.30;99.90;;;;;;5055413;28;20644;-92
2023/08/14 07:28:25;;;;;;;6.75;5.15;;;19.30;99.90;;;;;;5056720;28;20399;-93
2023/08/14 07:30:51;;;;;;;6.95;5.22;;;19.60;99.90;;;;;;5056849;28;20414;-92
2023/08/14 07:33:17;;;;;;;6.78;4.60;;;19.40;99.90;;;;;;5023123;28;20428;-92
2023/08/14 07:35:43;;;;;;;6.47;4.27;;;19.60;99.90;;;;;;5054752;28;20394;-92
2023/08/14 07:38:10;;;;;;;5.37;4.23;;;19.70;99.90;;;;;;5056972;28;20787;-93
2023/08/14 07:40:35;;;;;;;5.43;3.70;;;19.90;99.90;;;;;;5055318;28;20402;-92
2023/08/14 07:43:01;;;;;;;5.00;3.70;;;19.80;99.90;;;;;;5071349;28;21054;-93
2023/08/14 07:45:27;;;;;;;4.37;2.97;;;19.90;99.90;;;;;;5054615;28;20402;-93
2023/08/14 07:47:54;;;;;;;5.68;3.10;;;19.90;99.90;;;;;;5055754;28;20402;-92
2023/08/14 07:50:19;;;;;;;5.15;2.83;;;19.90;99.90;;;;;;5057887;28;20405;-92
2023/08/14 07:52:45;;;;;;;5.20;2.70;;;20.00;99.90;;;;;;5054410;28;20418;-92
2023/08/14 07:55:11;;;;;;;4.00;2.10;;;20.10;99.90;;;;;;5055052;28;20454;-92
2023/08/14 07:57:36;;;;;;;5.60;2.37;;;19.90;99.90;;;;;;5072747;28;20397;-92
2023/08/14 08:00:07;;;;;;;4.65;1.90;;;20.10;99.90;;;;;;5053588;28;20903;-92
2023/08/14 08:02:32;;;;;;;3.42;1.90;;;20.30;99.90;;;;;;5055361;28;20429;-93
2023/08/14 08:04:58;;;;;;;4.00;1.38;;;20.40;99.90;;;;;;5052784;28;20759;-93
2023/08/14 08:07:24;;;;;;;3.30;1.43;;;20.50;99.90;;;;;;5055169;28;20406;-93
2023/08/14 08:09:49;;;;;;;4.03;1.40;;;21.00;99.90;;;;;;5069858;28;20864;-93
2023/08/14 08:12:15;;;;;;;3.00;0.90;;;20.80;99.90;;;;;;5053579;28;20406;-93
2023/08/14 08:14:41;;;;;;;2.47;0.82;;;21.10;99.90;;;;;;5053131;28;20398;-93
2023/08/14 08:17:08;;;;;;;3.58;0.73;;;21.00;99.90;;;;;;5052174;28;20448;-91
2023/08/14 08:19:34;;;;;;;4.07;0.80;;;21.20;99.90;;;;;;5053285;28;20401;-93
2023/08/14 08:22:00;;;;;;;4.38;0.88;;;21.00;99.90;;;;;;5052720;28;20505;-92
2023/08/14 08:24:25;;;;;;;2.13;0.80;;;21.20;99.90;;;;;;5053446;28;20418;-93
2023/08/14 08:26:51;;;;;;;2.53;0.50;;;21.00;99.90;;;;;;5052742;28;20406;-92
2023/08/14 08:29:17;;;;;;;3.17;0.70;;;21.70;99.90;;;;;;5053828;28;20817;-93
2023/08/14 08:31:42;;;;;;;3.42;0.57;;;21.60;99.90;;;;;;5053175;28;21116;-91
2023/08/14 08:34:08;;;;;;;2.83;0.90;;;21.80;99.90;;;;;;5053291;28;20512;-92
2023/08/14 08:36:34;;;;;;;3.20;0.60;;;21.60;99.90;;;;;;5071447;28;20432;-92
2023/08/14 08:39:00;;;;;;;3.37;0.70;;;21.70;99.90;;;;;;5054078;28;20437;-92
2023/08/14 08:41:31;;;;;;;2.63;0.60;;;21.70;99.90;;;;;;5071648;28;20406;-92
2023/08/14 08:44:06;;;;;;;2.45;0.57;;;21.70;99.90;;;;;;5059786;28;20810;-93
2023/08/14 08:46:45;;;;;;;2.00;0.57;;;22.10;99.90;;;;;;5065158;28;20394;-93
2023/08/14 08:49:12;;;;;;;4.18;0.52;;;21.80;99.90;;;;;;5064730;28;20803;-92
2023/08/14 08:51:39;;;;;;;2.60;0.40;;;21.60;99.90;;;;;;5060099;28;20832;-86
2023/08/14 08:54:05;;;;;;;2.88;0.55;;;22.00;99.60;;;;;;5070992;28;20402;-87
2023/08/14 08:56:32;;;;;;;2.77;0.50;;;22.10;97.00;;;;;;5052774;28;21048;-86
2023/08/14 08:58:58;;;;;;;2.90;0.40;;;22.20;99.90;;;;;;5053058;28;20408;-86
2023/08/14 09:01:25;;;;;;;2.42;0.40;;;22.40;97.70;;;;;;5053450;28;20406;-86
2023/08/14 09:03:51;;;;;;;2.20;0.30;;;22.50;94.60;;;;;;5070157;28;20827;-88
2023/08/14 09:06:17;;;;;;;2.10;0.30;;;23.10;92.10;;;;;;5070786;28;20449;-87
2023/08/14 09:08:42;;;;;;;2.05;0.52;;;22.90;87.70;;;;;;5070607;28;20455;-86
2023/08/14 09:11:08;;;;;;;1.47;0.40;;;22.80;96.90;;;;;;5054588;28;20777;-87
2023/08/14 09:13:34;;;;;;;1.65;0.30;;;22.80;74.80;;;;;;5054060;28;20408;-88
2023/08/14 09:16:00;;;;;;;2.30;0.20;;;23.00;79.60;;;;;;5054499;28;20485;-87
2023/08/14 09:18:26;;;;;;;2.47;0.30;;;22.70;81.10;;;;;;5070582;28;20400;-87
2023/08/14 09:20:53;;;;;;;3.03;0.28;;;22.80;84.70;;;;;;5054212;28;20751;-88
2023/08/14 09:23:19;;;;;;;2.08;0.30;;;22.70;84.90;;;;;;5053862;28;20436;-88
2023/08/14 09:25:45;;;;;;;2.63;0.40;;;23.00;92.80;;;;;;5054666;28;20416;-91
2023/08/14 09:28:11;;;;;;;2.45;0.40;;;23.30;93.50;;;;;;5054876;28;20468;-90
2023/08/14 09:30:37;;;;;;;2.33;0.30;;;23.30;93.90;;;;;;5053801;28;20440;-87
2023/08/14 09:33:08;;;;;;;2.60;0.40;;;23.10;89.10;;;;;;5054119;28;20441;-87
2023/08/14 09:35:37;;;;;;;2.78;0.40;;;23.20;94.90;;;;;;5069789;28;20417;-87
2023/08/14 09:38:03;;;;;;;1.85;0.40;;;22.90;93.60;;;;;;5049527;28;20390;-86
2023/08/14 09:40:30;;;;;;;1.98;0.32;;;23.30;84.30;;;;;;5053723;28;20437;-89
2023/08/14 09:42:56;;;;;;;1.83;0.30;;;23.50;79.30;;;;;;5070094;28;20418;-88
2023/08/14 09:45:23;;;;;;;1.50;0.30;;;23.90;73.50;;;;;;5070103;28;20394;-88
2023/08/14 09:47:50;;;;;;;2.72;0.30;;;24.30;80.50;;;;;;5069833;28;20432;-87
2023/08/14 09:50:16;;;;;;;2.72;0.22;;;24.50;87.60;;;;;;5053136;28;20406;-89
2023/08/14 09:52:43;;;;;;;4.80;0.35;;;24.80;70.60;;;;;;5069885;28;20413;-90
2023/08/14 09:55:09;;;;;;;2.85;0.45;;;24.70;68.90;;;;;;5067862;28;20402;-88
2023/08/14 09:57:35;;;;;;;2.25;0.40;;;24.60;72.90;;;;;;5068816;28;20449;-87
2023/08/14 10:00:01;;;;;;;2.10;0.30;;;24.70;67.50;;;;;;5066417;28;20429;-88
2023/08/14 10:02:28;;;;;;;2.13;0.35;;;24.80;68.40;;;;;;5051593;28;20930;-87
2023/08/14 10:04:56;;;;;;;2.50;0.47;;;24.90;73.10;;;;;;5051990;28;20474;-87
2023/08/14 10:07:25;;;;;;;2.53;0.40;;;25.10;69.40;;;;;;5052548;28;20869;-85
2023/08/14 10:09:54;;;;;;;1.90;0.30;;;25.00;67.30;;;;;;5051862;28;20535;-87
2023/08/14 10:12:33;;;;;;;2.15;0.30;;;25.00;65.90;;;;;;5051981;28;20405;-87
2023/08/14 10:15:09;;;;;;;2.88;0.30;;;25.00;61.50;;;;;;5051247;28;20406;-87
2023/08/14 10:17:43;;;;;;;1.90;0.30;;;25.10;65.20;;;;;;5051906;28;20421;-91
2023/08/14 10:20:14;;;;;;;2.90;0.40;;;25.60;64.80;;;;;;5052384;28;20838;-89
2023/08/14 10:22:40;;;;;;;1.57;0.30;;;25.50;67.20;;;;;;5052481;28;20429;-87
2023/08/14 10:25:07;;;;;;;2.40;0.30;;;25.60;62.60;;;;;;5052703;28;20402;-87
2023/08/14 10:27:34;;;;;;;3.10;0.40;;;25.60;67.90;;;;;;5052205;28;20398;-86
2023/08/14 10:30:01;;;;;;;2.10;0.45;;;25.70;65.70;;;;;;5069056;28;20425;-88
2023/08/14 10:32:27;;;;;;;2.60;0.40;;;25.90;65.30;;;;;;5069118;28;20397;-86
2023/08/14 10:34:55;;;;;;;2.35;0.30;;;26.10;66.70;;;;;;5052120;28;20435;-86
2023/08/14 10:37:38;;;;;;;2.30;0.32;;;26.20;65.00;;;;;;5052570;28;20394;-86
2023/08/14 10:40:22;;;;;;;2.00;0.35;;;26.50;61.20;;;;;;5051838;28;20409;-87
2023/08/14 10:42:52;;;;;;;2.10;0.30;;;26.70;65.90;;;;;;5052879;28;20934;-86
2023/08/14 10:45:21;;;;;;;2.05;0.30;;;26.90;56.70;;;;;;5051907;28;20413;-87
2023/08/14 10:47:47;;;;;;;2.42;0.40;;;27.00;56.00;;;;;;5068760;28;20405;-87
2023/08/14 10:50:33;;;;;;;1.88;0.30;;;27.40;52.00;;;;;;5068766;28;20406;-87
2023/08/14 10:53:01;;;;;;;2.07;0.30;;;27.50;53.10;;;;;;5068936;28;20410;-86
2023/08/14 10:55:46;;;;;;;2.10;0.30;;;27.40;53.50;;;;;;5052031;28;20511;-87
2023/08/14 10:58:31;;;;;;;3.42;0.30;;;27.50;56.20;;;;;;5051807;28;20523;-87
2023/08/14 11:00:58;;;;;;;2.22;0.30;;;27.80;55.50;;;;;;5052773;28;20460;-91
2023/08/14 11:03:23;;;;;;;3.22;0.45;;;27.90;52.90;;;;;;5052014;28;20422;-88
2023/08/14 11:05:49;;;;;;;2.70;0.40;;;28.20;52.20;;;;;;5051433;28;20474;-87
2023/08/14 11:08:15;;;;;;;2.30;0.30;;;28.40;52.40;;;;;;5052899;28;20401;-89
2023/08/14 11:10:42;;;;;;;2.55;0.30;;;28.70;54.20;;;;;;5051731;28;20518;-87
2023/08/14 11:13:09;;;;;;;2.28;0.40;;;28.40;54.10;;;;;;5068649;28;20787;-88
2023/08/14 11:15:36;;;;;;;2.20;0.30;;;28.50;54.20;;;;;;5068059;28;20438;-90
2023/08/14 11:18:05;;;;;;;2.30;0.40;;;28.90;55.70;;;;;;5051837;28;20410;-89
2023/08/14 11:20:31;;;;;;;2.10;0.40;;;29.20;52.30;;;;;;5051801;28;20417;-91
2023/08/14 11:22:59;;;;;;;2.05;0.30;;;29.40;53.00;;;;;;5051517;28;20430;-90
2023/08/14 11:25:25;;;;;;;1.97;0.27;;;29.80;48.60;;;;;;5051984;28;20401;-87
2023/08/14 11:27:53;;;;;;;2.17;0.50;;;30.00;50.70;;;;;;5051448;28;20489;-88
2023/08/14 11:30:20;;;;;;;2.00;0.30;;;30.40;51.30;;;;;;5051612;28;20402;-87
2023/08/14 11:32:46;;;;;;;1.02;0.20;;;30.70;50.30;;;;;;5067737;28;20480;-87
2023/08/14 11:35:12;;;;;;;2.45;0.38;;;30.80;49.50;;;;;;5067672;28;20493;-87
2023/08/14 11:37:38;;;;;;;2.10;0.40;;;31.10;51.50;;;;;;5067580;28;20911;-88
2023/08/14 11:40:05;;;;;;;2.50;0.40;;;31.10;48.10;;;;;;5050812;28;20442;-88
2023/08/14 11:42:34;;;;;;;2.72;0.30;;;31.10;46.90;;;;;;5051125;28;20472;-87
2023/08/14 11:45:03;;;;;;;2.80;0.50;;;31.00;47.60;;;;;;5067453;28;20902;-88
2023/08/14 11:47:30;;;;;;;2.10;0.40;;;30.80;47.10;;;;;;5051214;28;20940;-88
2023/08/14 11:49:57;;;;;;;2.38;0.30;;;30.90;50.10;;;;;;5067332;28;20413;-88
2023/08/14 11:52:25;;;;;;;3.00;0.35;;;31.20;45.30;;;;;;5068490;28;20455;-87
2023/08/14 11:54:50;;;;;;;2.10;0.40;;;31.50;46.80;;;;;;5052307;28;20433;-89
2023/08/14 11:57:18;;;;;;;1.73;0.30;;;31.40;44.30;;;;;;5051317;28;21592;-89
2023/08/14 11:59:44;;;;;;;1.75;0.40;;;31.20;46.20;;;;;;5067557;28;20532;-87
2023/08/14 12:02:10;;;;;;;2.45;0.50;;;31.10;46.40;;;;;;5067307;28;20447;-86
2023/08/14 12:04:40;;;;;;;2.10;0.38;;;31.20;47.00;;;;;;5051614;28;20491;-90
2023/08/14 12:07:09;;;;;;;2.90;0.30;;;31.70;44.70;;;;;;5051745;28;20446;-89
2023/08/14 12:09:37;;;;;;;3.22;0.35;;;31.80;44.40;;;;;;5051501;28;20406;-88
2023/08/14 12:12:04;;;;;;;1.98;0.30;;;32.00;43.00;;;;;;5051124;28;20801;-88
2023/08/14 12:14:43;;;;;;;2.25;0.20;;;32.10;42.70;;;;;;5050567;28;20437;-89
2023/08/14 12:17:10;;;;;;;3.08;0.50;;;32.30;45.20;;;;;;5050566;28;20985;-88
2023/08/14 12:19:38;;;;;;;3.08;0.40;;;32.50;45.30;;;;;;5052165;28;20420;-90
2023/08/14 12:22:05;;;;;;;2.47;0.30;;;32.60;40.10;;;;;;5068281;28;20430;-88
2023/08/14 12:24:44;;;;;;;2.20;0.30;;;32.60;44.10;;;;;;5067536;28;20418;-89
2023/08/14 12:27:28;;;;;;;2.05;0.30;;;32.10;41.20;;;;;;5057690;28;20478;-93
2023/08/14 12:29:55;;;;;;;1.80;0.30;;;31.80;45.00;;;;;;5048564;28;20423;-90
2023/08/14 12:32:23;;;;;;;2.10;0.30;;;31.70;43.40;;;;;;5033511;28;20457;-88
2023/08/14 12:34:50;;;;;;;2.55;0.30;;;31.50;42.80;;;;;;5030098;28;20411;-89
2023/08/14 12:37:15;;;;;;;2.90;0.22;;;31.40;43.80;;;;;;5047396;28;20395;-89
2023/08/14 12:39:43;;;;;;;3.13;0.40;;;31.50;44.00;;;;;;5031874;28;20410;-88
2023/08/14 12:42:11;;;;;;;2.78;0.40;;;31.20;43.60;;;;;;5047882;28;20804;-88